Time;durP1;ratioP1;P1;durP2;ratioP2;P2;SDS_P1;SDS_P2;PMS_P1;PMS_P2;Temp;Humidity;BMP_temperature;BMP_pressure;BME280_temperature;BME280_humidity;BME280_pressure;Samples;Min_cycle;Max_cycle;Signal;HPM_P1;HPM_P2
2024/01/28 00:01:37;;;;;;;10.10;5.43;;;5.20;99.90;;;;;;5116539;28;20228;-76
2024/01/28 00:04:03;;;;;;;10.47;5.10;;;5.20;99.90;;;;;;5116213;28;20541;-76
2024/01/28 00:06:29;;;;;;;9.30;5.47;;;5.20;99.90;;;;;;5116034;28;20301;-75
2024/01/28 00:08:55;;;;;;;10.10;5.27;;;5.30;99.90;;;;;;5116639;28;20711;-76
2024/01/28 00:11:20;;;;;;;7.13;4.50;;;5.30;99.90;;;;;;5116154;28;20171;-75
2024/01/28 00:13:46;;;;;;;7.37;4.57;;;5.30;99.90;;;;;;5115400;28;20657;-75
2024/01/28 00:16:19;;;;;;;9.70;4.20;;;5.30;99.90;;;;;;5115806;28;20207;-75
2024/01/28 00:18:45;;;;;;;10.00;4.97;;;5.30;99.90;;;;;;5116173;28;20197;-75
2024/01/28 00:21:10;;;;;;;8.53;4.33;;;5.30;99.90;;;;;;5115968;28;20640;-75
2024/01/28 00:23:36;;;;;;;6.83;4.00;;;5.40;99.90;;;;;;5116129;28;20160;-75
2024/01/28 00:26:04;;;;;;;11.40;4.40;;;5.40;99.90;;;;;;5115954;28;20210;-75
2024/01/28 00:28:30;;;;;;;6.47;4.23;;;5.40;99.90;;;;;;5115887;28;20174;-75
2024/01/28 00:30:56;;;;;;;9.07;4.37;;;5.50;99.90;;;;;;5115448;28;20215;-74
2024/01/28 00:33:22;;;;;;;9.40;4.70;;;5.50;99.90;;;;;;5116028;28;20175;-75
2024/01/28 00:35:47;;;;;;;7.43;5.13;;;5.50;99.90;;;;;;5115970;28;20178;-75
2024/01/28 00:38:13;;;;;;;8.10;4.57;;;5.50;99.90;;;;;;5116117;28;20755;-76
2024/01/28 00:40:39;;;;;;;10.23;4.30;;;5.60;99.90;;;;;;5114399;28;20171;-75
2024/01/28 00:43:04;;;;;;;13.63;5.47;;;5.60;99.90;;;;;;5115712;28;20171;-74
2024/01/28 00:45:31;;;;;;;8.97;4.80;;;5.60;99.90;;;;;;5115368;28;20199;-75
2024/01/28 00:47:56;;;;;;;9.67;5.30;;;5.60;99.90;;;;;;5115520;28;20171;-75
2024/01/28 00:50:22;;;;;;;12.30;5.47;;;5.60;99.90;;;;;;5115540;28;20223;-76
2024/01/28 00:52:48;;;;;;;12.90;5.70;;;5.50;99.90;;;;;;5115340;28;20643;-75
2024/01/28 00:55:14;;;;;;;8.60;6.33;;;5.50;99.90;;;;;;5115472;28;20172;-76
2024/01/28 00:57:40;;;;;;;8.77;4.83;;;5.40;99.90;;;;;;5115420;28;20159;-75
2024/01/28 01:00:06;;;;;;;13.63;6.87;;;5.40;99.90;;;;;;5115141;28;20228;-76
2024/01/28 01:02:32;;;;;;;14.00;7.73;;;5.30;99.90;;;;;;5115218;28;20638;-75
2024/01/28 01:04:58;;;;;;;11.23;5.27;;;5.20;99.90;;;;;;5115291;28;20662;-75
2024/01/28 01:07:25;;;;;;;13.83;7.70;;;5.20;99.90;;;;;;5115179;28;20171;-76
2024/01/28 01:09:50;;;;;;;16.80;8.33;;;5.20;99.90;;;;;;5115419;28;20174;-76
2024/01/28 01:12:16;;;;;;;14.03;8.27;;;5.10;99.90;;;;;;5115256;28;20526;-76
2024/01/28 01:14:41;;;;;;;17.40;9.30;;;4.90;99.90;;;;;;5114880;28;20522;-76
2024/01/28 01:17:07;;;;;;;15.77;9.37;;;4.60;99.90;;;;;;5114965;28;20163;-75
2024/01/28 01:19:32;;;;;;;11.07;8.43;;;4.40;99.90;;;;;;5114986;28;20171;-75
2024/01/28 01:22:01;;;;;;;17.27;9.03;;;4.20;99.90;;;;;;5115028;28;20306;-76
2024/01/28 01:24:27;;;;;;;16.23;9.77;;;4.10;99.90;;;;;;5114022;28;20634;-75
2024/01/28 01:26:52;;;;;;;15.60;10.53;;;4.00;99.90;;;;;;5113738;28;20253;-76
2024/01/28 01:29:18;;;;;;;18.40;10.73;;;3.90;99.90;;;;;;5113264;28;20167;-76
2024/01/28 01:31:43;;;;;;;21.40;10.67;;;3.80;99.90;;;;;;5114577;28;20225;-76
2024/01/28 01:34:09;;;;;;;18.03;10.40;;;3.80;99.90;;;;;;5113545;28;20584;-77
2024/01/28 01:36:34;;;;;;;17.37;10.33;;;3.70;99.90;;;;;;5114780;28;20171;-77
2024/01/28 01:39:00;;;;;;;17.73;9.90;;;3.60;99.90;;;;;;5114767;28;20163;-76
2024/01/28 01:41:26;;;;;;;21.50;10.63;;;3.60;99.90;;;;;;5114610;28;20167;-76
2024/01/28 01:43:52;;;;;;;19.13;10.87;;;3.50;99.90;;;;;;5114200;28;20516;-76
2024/01/28 01:46:18;;;;;;;17.20;10.97;;;3.50;99.90;;;;;;5114341;28;20271;-76
2024/01/28 01:48:45;;;;;;;14.10;9.40;;;3.40;99.90;;;;;;5114450;28;20167;-76
2024/01/28 01:51:11;;;;;;;17.70;8.23;;;3.40;99.90;;;;;;5114322;28;20587;-76
2024/01/28 01:53:38;;;;;;;14.70;7.90;;;3.30;99.90;;;;;;5112766;28;20197;-75
2024/01/28 01:56:05;;;;;;;9.87;6.50;;;3.40;99.90;;;;;;5114098;28;20178;-77
2024/01/28 01:58:31;;;;;;;20.77;10.47;;;3.50;99.90;;;;;;5113905;28;20698;-75
2024/01/28 02:00:58;;;;;;;19.10;9.67;;;3.60;99.90;;;;;;5113859;28;20198;-75
2024/01/28 02:03:26;;;;;;;8.83;5.17;;;3.70;99.90;;;;;;5114064;28;20224;-76
2024/01/28 02:05:52;;;;;;;8.27;5.77;;;3.80;99.90;;;;;;5112745;28;20255;-76
2024/01/28 02:08:17;;;;;;;4.73;3.63;;;4.10;99.90;;;;;;5114103;28;20630;-76
2024/01/28 02:10:43;;;;;;;6.07;3.90;;;4.30;99.90;;;;;;5113949;28;20284;-75
2024/01/28 02:13:08;;;;;;;9.03;4.23;;;4.50;99.90;;;;;;5113863;28;20159;-75
2024/01/28 02:15:38;;;;;;;6.53;4.10;;;4.50;99.90;;;;;;5095657;28;20643;-75
2024/01/28 02:18:04;;;;;;;9.43;4.23;;;4.60;99.90;;;;;;5114128;28;20178;-75
2024/01/28 02:20:30;;;;;;;10.40;4.63;;;4.70;99.90;;;;;;5113907;28;20626;-75
2024/01/28 02:22:56;;;;;;;8.30;4.10;;;4.60;99.90;;;;;;5113832;28;20174;-74
2024/01/28 02:25:22;;;;;;;7.20;4.93;;;4.70;99.90;;;;;;5113404;28;20699;-76
2024/01/28 02:27:47;;;;;;;11.20;5.77;;;4.60;99.90;;;;;;5114098;28;20179;-76
2024/01/28 02:30:14;;;;;;;14.50;8.27;;;4.50;99.90;;;;;;5113541;28;20249;-74
2024/01/28 02:32:50;;;;;;;46.63;21.73;;;4.30;99.90;;;;;;5113558;28;20222;-74
2024/01/28 02:35:17;;;;;;;17.10;9.23;;;4.20;99.90;;;;;;5111995;28;20178;-75
2024/01/28 02:37:43;;;;;;;15.77;8.43;;;4.20;99.90;;;;;;5113670;28;20167;-74
2024/01/28 02:40:09;;;;;;;13.70;6.80;;;4.00;99.90;;;;;;5113288;28;20593;-75
2024/01/28 02:42:34;;;;;;;7.33;5.07;;;3.90;99.90;;;;;;5113525;28;20518;-74
2024/01/28 02:45:00;;;;;;;11.33;4.80;;;4.00;99.90;;;;;;5113724;28;20195;-76
2024/01/28 02:47:26;;;;;;;8.50;5.47;;;4.10;99.90;;;;;;5113597;28;20213;-76
2024/01/28 02:49:51;;;;;;;9.00;5.33;;;4.00;99.90;;;;;;5113787;28;20175;-75
2024/01/28 02:52:17;;;;;;;11.93;7.53;;;4.10;99.90;;;;;;5113581;28;20230;-75
2024/01/28 02:54:43;;;;;;;9.73;6.70;;;4.00;99.90;;;;;;5113224;28;20635;-77
2024/01/28 02:57:08;;;;;;;17.07;7.70;;;3.60;99.90;;;;;;5113496;28;20171;-75
2024/01/28 02:59:34;;;;;;;11.67;7.80;;;3.40;99.90;;;;;;5113382;28;20171;-76
2024/01/28 03:02:00;;;;;;;13.63;7.70;;;3.30;99.90;;;;;;5113573;28;20642;-76
2024/01/28 03:04:25;;;;;;;17.20;7.40;;;3.10;99.90;;;;;;5113510;28;20171;-76
2024/01/28 03:06:51;;;;;;;11.57;7.60;;;3.10;99.90;;;;;;5113403;28;20690;-77
2024/01/28 03:09:18;;;;;;;12.83;8.03;;;3.00;99.90;;;;;;5113258;28;20686;-76
2024/01/28 03:11:44;;;;;;;9.97;7.33;;;2.80;99.90;;;;;;5113140;28;20167;-75
2024/01/28 03:14:10;;;;;;;14.53;8.20;;;2.70;99.90;;;;;;5112043;28;20267;-75
2024/01/28 03:16:36;;;;;;;12.80;8.33;;;2.70;99.90;;;;;;5113305;28;20175;-75
2024/01/28 03:19:02;;;;;;;13.00;7.53;;;2.60;99.90;;;;;;5113449;28;20589;-75
2024/01/28 03:21:28;;;;;;;12.30;8.23;;;2.60;99.90;;;;;;5112198;28;20187;-75
2024/01/28 03:23:54;;;;;;;15.80;8.97;;;2.60;99.90;;;;;;5112934;28;20167;-75
2024/01/28 03:26:20;;;;;;;15.00;8.30;;;2.70;99.90;;;;;;5113039;28;20256;-75
2024/01/28 03:28:45;;;;;;;10.30;7.43;;;2.70;99.90;;;;;;5113143;28;20156;-75
2024/01/28 03:31:11;;;;;;;11.23;8.10;;;2.80;99.90;;;;;;5113160;28;20227;-75
2024/01/28 03:33:37;;;;;;;15.53;8.57;;;2.80;99.90;;;;;;5113306;28;20175;-75
2024/01/28 03:36:02;;;;;;;11.23;7.77;;;2.80;99.90;;;;;;5113185;28;20176;-75
2024/01/28 03:38:28;;;;;;;10.20;7.03;;;2.80;99.90;;;;;;5111603;28;20194;-75
2024/01/28 03:40:54;;;;;;;14.27;6.40;;;2.90;99.90;;;;;;5113255;28;20222;-75
2024/01/28 03:43:19;;;;;;;16.77;9.50;;;3.00;99.90;;;;;;5111728;28;20195;-75
2024/01/28 03:45:45;;;;;;;16.90;9.17;;;3.00;99.90;;;;;;5113090;28;20203;-76
2024/01/28 03:48:10;;;;;;;10.43;7.83;;;3.10;99.90;;;;;;5114929;28;20159;-75
2024/01/28 03:50:36;;;;;;;15.47;8.50;;;3.10;99.90;;;;;;5116890;28;20642;-75
2024/01/28 03:53:01;;;;;;;13.70;7.73;;;3.00;99.90;;;;;;5116418;28;20187;-74
2024/01/28 03:55:27;;;;;;;13.77;8.00;;;2.90;99.90;;;;;;5116635;28;20242;-75
2024/01/28 03:57:52;;;;;;;12.57;7.93;;;2.90;99.90;;;;;;5116658;28;20167;-76
2024/01/28 04:00:18;;;;;;;12.97;7.60;;;3.00;99.90;;;;;;5116458;28;20277;-75
2024/01/28 04:02:44;;;;;;;17.27;8.57;;;3.10;99.90;;;;;;5116499;28;20220;-76
2024/01/28 04:05:10;;;;;;;14.57;9.23;;;3.10;99.90;;;;;;5115256;28;20241;-76
2024/01/28 04:07:35;;;;;;;14.03;7.83;;;3.00;99.90;;;;;;5115897;28;20691;-76
2024/01/28 04:10:01;;;;;;;18.53;8.97;;;2.80;99.90;;;;;;5116290;28;20242;-74
2024/01/28 04:12:27;;;;;;;15.50;8.77;;;2.70;99.90;;;;;;5116383;28;20163;-76
2024/01/28 04:14:52;;;;;;;18.03;9.50;;;2.60;99.90;;;;;;5116364;28;20171;-76
2024/01/28 04:17:18;;;;;;;13.23;8.40;;;2.70;99.90;;;;;;5116170;28;20224;-76
2024/01/28 04:19:43;;;;;;;14.07;8.57;;;2.80;99.90;;;;;;5116067;28;20179;-75
2024/01/28 04:22:10;;;;;;;14.40;8.57;;;2.80;99.90;;;;;;5115769;28;20316;-76
2024/01/28 04:24:35;;;;;;;12.50;8.70;;;2.60;99.90;;;;;;5115924;28;20175;-75
2024/01/28 04:27:01;;;;;;;14.30;8.70;;;2.60;99.90;;;;;;5115772;28;20210;-75
2024/01/28 04:29:27;;;;;;;15.63;8.13;;;2.50;99.90;;;;;;5115790;28;20205;-75
2024/01/28 04:31:53;;;;;;;14.33;8.77;;;2.50;99.90;;;;;;5115424;28;20246;-75
2024/01/28 04:34:20;;;;;;;12.67;7.97;;;2.50;99.90;;;;;;5115735;28;20246;-75
2024/01/28 04:36:45;;;;;;;13.47;8.93;;;2.70;99.90;;;;;;5115241;28;20159;-75
2024/01/28 04:39:12;;;;;;;13.03;8.53;;;2.70;99.90;;;;;;5115324;28;20170;-75
2024/01/28 04:41:38;;;;;;;14.47;8.77;;;2.80;99.90;;;;;;5115822;28;20649;-75
2024/01/28 04:44:04;;;;;;;15.97;8.40;;;2.80;99.90;;;;;;5115551;28;20175;-75
2024/01/28 04:46:29;;;;;;;18.87;8.90;;;2.80;99.90;;;;;;5113914;28;20528;-75
2024/01/28 04:48:55;;;;;;;14.63;8.43;;;2.80;99.90;;;;;;5115176;28;20242;-75
2024/01/28 04:51:20;;;;;;;17.60;8.30;;;2.70;99.90;;;;;;5115200;28;20168;-76
2024/01/28 04:53:46;;;;;;;16.13;8.67;;;2.60;99.90;;;;;;5115308;28;20191;-76
2024/01/28 04:56:12;;;;;;;13.60;8.87;;;2.50;99.90;;;;;;5115119;28;20386;-75
2024/01/28 04:58:38;;;;;;;15.80;8.60;;;2.40;99.90;;;;;;5115053;28;20198;-75
2024/01/28 05:01:03;;;;;;;15.63;8.10;;;2.40;99.90;;;;;;5114247;28;20237;-75
2024/01/28 05:03:29;;;;;;;18.70;8.60;;;2.50;99.90;;;;;;5115023;28;20175;-75
2024/01/28 05:05:55;;;;;;;13.97;8.30;;;2.40;99.90;;;;;;5112995;28;20279;-75
2024/01/28 05:08:20;;;;;;;10.67;8.20;;;2.50;99.90;;;;;;5115198;28;20167;-74
2024/01/28 05:10:46;;;;;;;15.90;8.70;;;2.50;99.90;;;;;;5115054;28;20250;-74
2024/01/28 05:13:11;;;;;;;17.17;8.37;;;2.50;99.90;;;;;;5114517;28;20178;-75
2024/01/28 05:15:37;;;;;;;13.57;8.03;;;2.40;99.90;;;;;;5114833;28;20174;-75
2024/01/28 05:18:03;;;;;;;12.83;8.60;;;2.30;99.90;;;;;;5114970;28;20332;-75
2024/01/28 05:20:28;;;;;;;11.07;6.87;;;2.30;99.90;;;;;;5114284;28;20669;-75
2024/01/28 05:22:54;;;;;;;7.77;5.70;;;2.40;99.90;;;;;;5114826;28;20182;-75
2024/01/28 05:25:19;;;;;;;15.63;7.50;;;2.50;99.90;;;;;;5114540;28;20210;-75
2024/01/28 05:27:46;;;;;;;12.00;8.57;;;2.60;99.90;;;;;;5114517;28;20163;-75
2024/01/28 05:30:11;;;;;;;10.90;7.37;;;2.70;99.90;;;;;;5114727;28;20220;-75
2024/01/28 05:32:37;;;;;;;13.77;6.70;;;2.80;99.90;;;;;;5114370;28;20218;-75
2024/01/28 05:35:04;;;;;;;11.93;7.30;;;2.90;99.90;;;;;;5114307;28;20170;-74
2024/01/28 05:37:30;;;;;;;10.80;7.20;;;3.00;99.90;;;;;;5113401;28;20186;-75
2024/01/28 05:39:57;;;;;;;14.93;7.43;;;3.00;99.90;;;;;;5114528;28;20511;-74
2024/01/28 05:42:22;;;;;;;8.80;6.73;;;3.00;99.90;;;;;;5114291;28;20182;-74
2024/01/28 05:44:48;;;;;;;12.20;7.70;;;2.90;99.90;;;;;;5113920;28;20246;-76
2024/01/28 05:47:14;;;;;;;15.73;7.70;;;2.90;99.90;;;;;;5114233;28;20232;-75
2024/01/28 05:49:40;;;;;;;13.20;7.17;;;3.00;99.90;;;;;;5113713;28;20246;-75
2024/01/28 05:52:06;;;;;;;13.50;7.43;;;2.90;99.90;;;;;;5114019;28;20558;-74
2024/01/28 05:54:32;;;;;;;9.67;5.40;;;3.00;99.90;;;;;;5112717;28;20231;-74
2024/01/28 05:56:58;;;;;;;8.90;4.10;;;3.10;99.90;;;;;;5114098;28;20694;-74
2024/01/28 05:59:23;;;;;;;6.10;4.47;;;3.10;99.90;;;;;;5113878;28;20256;-75
2024/01/28 06:01:49;;;;;;;9.93;5.20;;;3.20;99.90;;;;;;5114136;28;20171;-74
2024/01/28 06:04:15;;;;;;;6.50;5.07;;;3.30;99.90;;;;;;5113850;28;20167;-75
2024/01/28 06:06:42;;;;;;;6.07;4.50;;;3.30;99.90;;;;;;5113708;28;20794;-74
2024/01/28 06:09:09;;;;;;;8.20;4.63;;;3.30;99.90;;;;;;5113680;28;20164;-74
2024/01/28 06:11:36;;;;;;;5.73;4.37;;;3.30;99.90;;;;;;5113203;28;20622;-74
2024/01/28 06:14:02;;;;;;;6.77;6.03;;;3.40;99.90;;;;;;5113831;28;20201;-74
2024/01/28 06:16:27;;;;;;;9.63;6.53;;;3.60;99.90;;;;;;5113738;28;20176;-75
2024/01/28 06:18:53;;;;;;;9.07;5.90;;;3.60;99.90;;;;;;5113495;28;20171;-76
2024/01/28 06:21:18;;;;;;;14.37;7.17;;;3.50;99.90;;;;;;5113715;28;20171;-76
2024/01/28 06:23:44;;;;;;;12.53;7.47;;;3.40;99.90;;;;;;5112437;28;20181;-76
2024/01/28 06:26:09;;;;;;;10.73;7.27;;;3.40;99.90;;;;;;5113452;28;20238;-76
2024/01/28 06:28:35;;;;;;;11.07;7.27;;;3.40;99.90;;;;;;5113432;28;20175;-76
2024/01/28 06:31:00;;;;;;;10.07;7.13;;;3.30;99.90;;;;;;5113549;28;20213;-75
2024/01/28 06:33:26;;;;;;;13.97;7.87;;;3.20;99.90;;;;;;5114019;28;20170;-75
2024/01/28 06:35:52;;;;;;;10.83;7.63;;;3.10;99.90;;;;;;5113199;28;20627;-75
2024/01/28 06:38:18;;;;;;;17.23;7.97;;;3.00;99.90;;;;;;5112148;28;20171;-74
2024/01/28 06:40:44;;;;;;;17.23;8.47;;;2.80;99.90;;;;;;5113272;28;20163;-75
2024/01/28 06:43:09;;;;;;;16.47;7.70;;;2.60;99.90;;;;;;5113161;28;20167;-75
2024/01/28 06:45:35;;;;;;;10.87;7.50;;;2.50;99.90;;;;;;5113619;28;20658;-75
2024/01/28 06:48:00;;;;;;;11.30;7.60;;;2.30;99.90;;;;;;5112899;28;20533;-76
2024/01/28 06:50:26;;;;;;;13.77;7.27;;;2.30;99.90;;;;;;5112873;28;20194;-75
2024/01/28 06:52:51;;;;;;;12.17;8.47;;;2.30;99.90;;;;;;5113005;28;20183;-75
2024/01/28 06:55:17;;;;;;;11.63;7.93;;;2.30;99.90;;;;;;5113097;28;20246;-76
2024/01/28 06:57:43;;;;;;;14.77;8.13;;;2.30;99.90;;;;;;5112400;28;20523;-76
2024/01/28 07:00:13;;;;;;;14.03;8.30;;;2.30;99.90;;;;;;5113416;28;20155;-76
2024/01/28 07:02:39;;;;;;;12.37;7.87;;;2.40;99.90;;;;;;5112877;28;20160;-76
2024/01/28 07:05:05;;;;;;;16.47;8.70;;;2.40;99.90;;;;;;5111872;28;20175;-76
2024/01/28 07:07:31;;;;;;;14.37;8.03;;;2.40;99.90;;;;;;5113123;28;20186;-75
2024/01/28 07:09:57;;;;;;;15.13;8.00;;;2.30;99.90;;;;;;5113161;28;20167;-76
2024/01/28 07:12:22;;;;;;;13.60;7.63;;;2.30;99.90;;;;;;5112005;28;20178;-77
2024/01/28 07:14:48;;;;;;;13.83;7.43;;;2.30;99.90;;;;;;5113257;28;20159;-76
2024/01/28 07:17:13;;;;;;;10.93;7.10;;;2.10;99.90;;;;;;5111672;28;20179;-76
2024/01/28 07:19:40;;;;;;;12.17;6.93;;;2.00;99.90;;;;;;5112954;28;20181;-76
2024/01/28 07:22:06;;;;;;;12.03;6.97;;;1.90;99.90;;;;;;5114857;28;20643;-76
2024/01/28 07:24:32;;;;;;;9.67;7.70;;;1.80;99.90;;;;;;5117095;28;20210;-74
2024/01/28 07:26:58;;;;;;;16.13;7.30;;;1.90;99.90;;;;;;5116671;28;20203;-76
2024/01/28 07:29:24;;;;;;;16.27;8.07;;;1.90;99.90;;;;;;5117295;28;20221;-75
2024/01/28 07:31:51;;;;;;;10.67;7.00;;;2.00;99.90;;;;;;5115157;28;20245;-76
2024/01/28 07:34:19;;;;;;;10.80;7.10;;;2.20;99.90;;;;;;5116816;28;20164;-75
2024/01/28 07:36:50;;;;;;;12.80;8.57;;;2.20;99.90;;;;;;5116855;28;20194;-76
2024/01/28 07:39:15;;;;;;;12.57;8.33;;;2.30;99.90;;;;;;5116713;28;20653;-75
2024/01/28 07:41:41;;;;;;;14.03;8.53;;;2.40;99.90;;;;;;5116383;28;20167;-76
2024/01/28 07:44:08;;;;;;;19.97;9.70;;;2.40;99.90;;;;;;5116841;28;20231;-75
2024/01/28 07:46:34;;;;;;;18.57;8.50;;;2.40;99.90;;;;;;5116221;28;20238;-76
2024/01/28 07:48:59;;;;;;;14.10;7.83;;;2.50;99.90;;;;;;5116071;28;20218;-75
2024/01/28 07:51:25;;;;;;;11.60;8.00;;;2.60;99.90;;;;;;5114666;28;20220;-74
2024/01/28 07:53:51;;;;;;;10.67;7.23;;;2.60;99.90;;;;;;5116631;28;20179;-75
2024/01/28 07:56:16;;;;;;;9.43;6.57;;;2.60;99.90;;;;;;5115915;27;20168;-74
2024/01/28 07:58:42;;;;;;;16.67;7.07;;;2.70;99.90;;;;;;5116339;28;20500;-74
2024/01/28 08:01:08;;;;;;;15.87;6.80;;;3.10;99.90;;;;;;5115753;28;20166;-73
2024/01/28 08:03:33;;;;;;;14.30;6.60;;;3.80;99.90;;;;;;5116297;28;20320;-72
2024/01/28 08:05:59;;;;;;;15.10;6.73;;;4.70;99.90;;;;;;5116163;28;20737;-73
2024/01/28 08:08:25;;;;;;;8.87;6.50;;;5.30;99.90;;;;;;5116038;28;20242;-72
2024/01/28 08:10:50;;;;;;;11.67;7.50;;;6.20;99.90;;;;;;5115647;28;20199;-72
2024/01/28 08:13:17;;;;;;;20.80;11.17;;;7.30;99.90;;;;;;5115526;28;20179;-73
2024/01/28 08:15:43;;;;;;;14.87;7.00;;;8.20;99.90;;;;;;5115773;28;20171;-73
2024/01/28 08:18:08;;;;;;;11.50;7.17;;;8.70;99.90;;;;;;5116055;28;20167;-74
2024/01/28 08:20:34;;;;;;;21.00;11.73;;;9.80;98.80;;;;;;5115944;28;20179;-74
2024/01/28 08:22:59;;;;;;;13.30;7.77;;;10.60;95.70;;;;;;5114047;28;20634;-74
2024/01/28 08:25:25;;;;;;;16.50;8.47;;;11.30;93.10;;;;;;5115873;28;20207;-74
2024/01/28 08:27:50;;;;;;;11.90;7.83;;;12.20;91.50;;;;;;5115261;28;20171;-74
2024/01/28 08:30:22;;;;;;;14.13;8.13;;;12.90;87.20;;;;;;5115860;28;20626;-74
2024/01/28 08:32:48;;;;;;;9.97;7.70;;;13.40;83.20;;;;;;5115021;27;20211;-74
2024/01/28 08:35:13;;;;;;;11.20;8.40;;;13.00;81.90;;;;;;5115354;28;20174;-73
2024/01/28 08:37:39;;;;;;;15.07;8.83;;;12.20;83.90;;;;;;5115505;28;20527;-72
2024/01/28 08:40:07;;;;;;;12.97;8.83;;;11.80;86.60;;;;;;5115309;28;20281;-75
2024/01/28 08:42:34;;;;;;;11.27;7.73;;;12.40;86.20;;;;;;5114782;28;20163;-75
2024/01/28 08:44:59;;;;;;;14.63;8.73;;;12.40;83.80;;;;;;5114008;28;20167;-74
2024/01/28 08:47:25;;;;;;;10.97;8.47;;;12.80;83.60;;;;;;5114038;28;20167;-75
2024/01/28 08:49:51;;;;;;;9.97;8.00;;;13.20;81.80;;;;;;5114760;28;20690;-75
2024/01/28 08:52:18;;;;;;;12.77;8.93;;;13.90;78.80;;;;;;5115232;28;20183;-74
2024/01/28 08:54:45;;;;;;;13.67;9.17;;;14.80;75.40;;;;;;5115409;28;20669;-74
2024/01/28 08:57:11;;;;;;;18.17;8.98;;;15.10;72.30;;;;;;5114677;28;20191;-75
2024/01/28 08:59:37;;;;;;;13.00;8.43;;;15.50;69.30;;;;;;5114838;28;20167;-75
2024/01/28 09:02:03;;;;;;;9.85;8.07;;;14.90;68.20;;;;;;5115098;28;20175;-75
2024/01/28 09:04:28;;;;;;;9.07;6.38;;;15.40;69.50;;;;;;5113695;28;20190;-73
2024/01/28 09:06:54;;;;;;;13.43;7.60;;;15.20;64.80;;;;;;5113282;28;20198;-74
2024/01/28 09:09:19;;;;;;;8.60;6.70;;;15.20;67.80;;;;;;5114934;28;20243;-75
2024/01/28 09:11:45;;;;;;;9.20;5.93;;;15.80;64.90;;;;;;5114584;28;20174;-75
2024/01/28 09:14:11;;;;;;;7.38;5.20;;;16.40;59.60;;;;;;5114758;28;20172;-75
2024/01/28 09:16:36;;;;;;;10.40;5.95;;;16.80;58.60;;;;;;5114292;28;20163;-75
2024/01/28 09:19:03;;;;;;;7.20;4.57;;;17.20;57.20;;;;;;5114566;28;20164;-75
2024/01/28 09:21:30;;;;;;;6.10;3.83;;;17.50;53.30;;;;;;5114880;28;20163;-74
2024/01/28 09:23:57;;;;;;;4.43;3.85;;;17.50;50.50;;;;;;5114646;28;20267;-74
2024/01/28 09:26:22;;;;;;;6.15;4.95;;;17.10;48.80;;;;;;5113941;28;20248;-74
2024/01/28 09:28:48;;;;;;;11.07;7.45;;;17.30;50.50;;;;;;5114239;28;20167;-74
2024/01/28 09:31:13;;;;;;;6.07;4.60;;;17.60;52.50;;;;;;5114364;28;20727;-73
2024/01/28 09:33:39;;;;;;;8.93;6.13;;;16.60;49.10;;;;;;5114726;28;20649;-75
2024/01/28 09:36:04;;;;;;;6.40;4.38;;;16.60;51.60;;;;;;5114397;28;20171;-74
2024/01/28 09:38:30;;;;;;;6.00;5.40;;;16.80;49.50;;;;;;5113967;28;20172;-74
2024/01/28 09:41:23;;;;;;;6.00;4.10;;;16.50;51.00;;;;;;5113863;28;20174;-75
2024/01/28 09:43:48;;;;;;;4.53;3.88;;;16.80;49.30;;;;;;5114451;28;20308;-75
2024/01/28 09:46:16;;;;;;;4.38;3.97;;;17.30;48.40;;;;;;5112568;28;20286;-74
2024/01/28 09:48:44;;;;;;;11.65;7.03;;;17.70;47.10;;;;;;5114194;28;20178;-75
2024/01/28 09:51:12;;;;;;;6.43;5.72;;;18.00;49.70;;;;;;5113643;27;20179;-74
2024/01/28 09:53:37;;;;;;;7.85;5.82;;;17.90;46.90;;;;;;5114081;28;20191;-75
2024/01/28 09:56:04;;;;;;;6.07;5.38;;;18.50;47.50;;;;;;5113280;28;20589;-74
2024/01/28 09:58:30;;;;;;;3.75;3.45;;;18.30;46.30;;;;;;5112915;28;20171;-76
2024/01/28 10:00:56;;;;;;;6.90;5.03;;;18.30;43.00;;;;;;5113969;28;20540;-74
2024/01/28 10:03:22;;;;;;;4.72;4.28;;;18.00;44.50;;;;;;5113721;28;20163;-75
2024/01/28 10:05:47;;;;;;;9.07;6.63;;;17.60;44.60;;;;;;5113160;27;20749;-75
2024/01/28 10:08:14;;;;;;;5.57;5.03;;;18.00;46.50;;;;;;5113736;28;20675;-75
2024/01/28 10:10:40;;;;;;;7.28;5.47;;;18.10;44.20;;;;;;5113237;28;20177;-76
2024/01/28 10:13:06;;;;;;;7.70;5.13;;;18.50;44.90;;;;;;5113458;28;20178;-75
2024/01/28 10:15:32;;;;;;;8.60;5.80;;;18.80;43.30;;;;;;5114205;28;20296;-76
2024/01/28 10:17:58;;;;;;;7.15;5.82;;;19.00;43.70;;;;;;5113359;28;20462;-75
2024/01/28 10:20:24;;;;;;;6.72;6.03;;;18.60;44.00;;;;;;5112779;28;20580;-76
2024/01/28 10:22:51;;;;;;;12.27;6.20;;;18.50;44.70;;;;;;5111878;28;20167;-76
2024/01/28 10:25:17;;;;;;;6.90;5.43;;;18.40;44.90;;;;;;5112874;28;20234;-74
2024/01/28 10:27:47;;;;;;;6.28;5.47;;;18.00;45.00;;;;;;5113164;28;20167;-74
2024/01/28 10:30:15;;;;;;;6.32;5.38;;;17.90;44.60;;;;;;5113707;28;20175;-75
2024/01/28 10:32:42;;;;;;;10.70;5.90;;;17.90;44.30;;;;;;5113383;28;20301;-76
2024/01/28 10:35:10;;;;;;;14.15;8.10;;;18.20;44.60;;;;;;5112707;28;20163;-76
2024/01/28 10:37:35;;;;;;;11.70;8.23;;;18.40;44.10;;;;;;5112295;28;20167;-76
2024/01/28 10:40:07;;;;;;;9.63;7.45;;;18.20;43.80;;;;;;5112802;28;20178;-75
2024/01/28 10:42:40;;;;;;;9.32;6.60;;;18.30;43.10;;;;;;5113404;28;20163;-76
2024/01/28 10:45:10;;;;;;;14.07;7.40;;;18.40;42.70;;;;;;5113257;28;20529;-76
2024/01/28 10:47:39;;;;;;;9.95;6.25;;;18.60;42.00;;;;;;5111614;28;20207;-75
2024/01/28 10:50:09;;;;;;;8.73;6.82;;;18.30;41.70;;;;;;5111426;28;20258;-76
2024/01/28 10:52:37;;;;;;;8.95;6.68;;;18.50;41.60;;;;;;5113057;28;20658;-76
2024/01/28 10:55:04;;;;;;;13.25;7.30;;;18.70;40.90;;;;;;5112928;28;20228;-76
2024/01/28 10:57:35;;;;;;;9.55;7.15;;;18.90;42.30;;;;;;5116067;28;20258;-76
2024/01/28 11:00:05;;;;;;;8.77;6.32;;;19.00;40.40;;;;;;5117213;28;20266;-77
2024/01/28 11:02:34;;;;;;;10.23;6.90;;;19.00;39.60;;;;;;5117229;28;20175;-76
2024/01/28 11:05:01;;;;;;;14.15;8.63;;;19.00;41.00;;;;;;5118244;28;20171;-76
2024/01/28 11:07:28;;;;;;;13.65;8.02;;;18.30;42.30;;;;;;5116760;28;20539;-76
2024/01/28 11:09:54;;;;;;;9.23;7.05;;;18.70;42.50;;;;;;5116719;28;20529;-76
2024/01/28 11:12:20;;;;;;;7.43;3.88;;;18.40;40.40;;;;;;5117098;28;20171;-76
2024/01/28 11:14:46;;;;;;;5.25;3.97;;;18.40;38.80;;;;;;5116888;28;20321;-76
2024/01/28 11:17:13;;;;;;;7.85;3.47;;;17.40;39.30;;;;;;5117230;28;20240;-76
2024/01/28 11:19:38;;;;;;;3.67;2.85;;;16.60;39.60;;;;;;5115102;28;20200;-75
2024/01/28 11:22:04;;;;;;;3.20;2.80;;;15.80;39.60;;;;;;5116691;28;20175;-75
2024/01/28 11:24:44;;;;;;;5.07;2.42;;;15.40;40.60;;;;;;5116673;28;20620;-75
2024/01/28 11:27:11;;;;;;;3.00;2.50;;;14.70;42.10;;;;;;5116892;28;20206;-74
2024/01/28 11:29:36;;;;;;;2.80;2.43;;;14.20;43.50;;;;;;5115844;28;20250;-74
2024/01/28 11:32:07;;;;;;;4.03;2.83;;;13.90;44.90;;;;;;5116716;28;20295;-74
2024/01/28 11:34:32;;;;;;;7.37;4.17;;;13.60;46.20;;;;;;5116435;28;20182;-74
2024/01/28 11:36:59;;;;;;;6.30;3.53;;;13.60;47.80;;;;;;5116481;28;20168;-73
2024/01/28 11:39:35;;;;;;;5.23;3.17;;;13.70;47.70;;;;;;5116795;28;20615;-74
2024/01/28 11:42:01;;;;;;;3.17;2.87;;;13.60;48.60;;;;;;5116821;28;20249;-72
2024/01/28 11:44:27;;;;;;;4.30;3.10;;;13.40;47.80;;;;;;5116487;28;20190;-73
2024/01/28 11:46:54;;;;;;;11.03;8.60;;;13.20;49.20;;;;;;5116004;28;20210;-73
2024/01/28 11:49:20;;;;;;;8.27;7.13;;;13.20;50.00;;;;;;5116039;28;20178;-74
2024/01/28 11:51:45;;;;;;;11.70;9.83;;;13.10;50.80;;;;;;5115494;28;20186;-74
2024/01/28 11:54:11;;;;;;;14.97;13.03;;;13.20;51.20;;;;;;5116005;28;20167;-74
2024/01/28 11:56:36;;;;;;;5.00;3.33;;;13.00;51.20;;;;;;5116140;28;20170;-74
2024/01/28 11:59:03;;;;;;;5.87;4.20;;;13.00;51.20;;;;;;5115528;28;20191;-74
2024/01/28 12:01:29;;;;;;;11.97;9.10;;;13.00;52.30;;;;;;5115968;28;20186;-73
2024/01/28 12:03:55;;;;;;;12.60;9.97;;;13.10;52.80;;;;;;5115853;28;20156;-74
2024/01/28 12:06:23;;;;;;;6.63;5.37;;;13.40;52.90;;;;;;5115310;28;20211;-73
2024/01/28 12:08:49;;;;;;;4.70;3.37;;;13.70;52.40;;;;;;5115378;28;20167;-74
2024/01/28 12:11:20;;;;;;;3.57;2.83;;;13.70;50.80;;;;;;5114484;28;20258;-74
2024/01/28 12:13:46;;;;;;;6.63;4.50;;;13.50;52.00;;;;;;5116238;28;20163;-73
2024/01/28 12:16:12;;;;;;;10.40;9.27;;;13.70;52.90;;;;;;5115522;28;20649;-73
2024/01/28 12:18:40;;;;;;;3.63;3.20;;;13.70;52.40;;;;;;5115480;28;20653;-73
2024/01/28 12:21:24;;;;;;;18.10;12.87;;;13.80;52.10;;;;;;5114822;27;20619;-74
2024/01/28 12:24:02;;;;;;;7.27;6.57;;;13.80;52.50;;;;;;5115677;27;20171;-74
2024/01/28 12:26:32;;;;;;;2.47;2.27;;;13.60;53.00;;;;;;5115726;28;20202;-74
2024/01/28 12:28:59;;;;;;;6.57;5.93;;;13.30;54.10;;;;;;5115794;28;20164;-73
2024/01/28 12:31:24;;;;;;;4.87;2.60;;;13.20;55.10;;;;;;5115413;28;20309;-74
2024/01/28 12:33:50;;;;;;;3.93;3.63;;;13.20;55.60;;;;;;5115399;28;20326;-74
2024/01/28 12:36:17;;;;;;;3.53;2.60;;;13.30;56.50;;;;;;5115005;28;20676;-74
2024/01/28 12:38:42;;;;;;;4.83;3.07;;;13.20;56.60;;;;;;5115160;28;20706;-73
2024/01/28 12:41:09;;;;;;;3.63;2.93;;;13.30;57.20;;;;;;5113477;28;20175;-73
2024/01/28 12:43:36;;;;;;;4.30;2.47;;;13.40;57.50;;;;;;5115653;28;20179;-75